Time;durP1;ratioP1;P1;durP2;ratioP2;P2;SDS_P1;SDS_P2;PMS_P1;PMS_P2;Temp;Humidity;BMP_temperature;BMP_pressure;BME280_temperature;BME280_humidity;BME280_pressure;Samples;Min_cycle;Max_cycle;Signal;HPM_P1;HPM_P2
2023/07/10 00:01:37;;;;;;;0.10;0.10;;;;;;;;;;5129642;27;20501;-58
2023/07/10 00:04:05;;;;;;;0.10;0.10;;;;;;;;;;5129840;28;20054;-58
2023/07/10 00:06:30;;;;;;;0.10;0.10;;;;;;;;;;5129245;28;20089;-59
2023/07/10 00:08:56;;;;;;;0.10;0.10;;;;;;;;;;5129451;28;20460;-58
2023/07/10 00:11:26;;;;;;;0.10;0.10;;;;;;;;;;5114503;28;20517;-58
2023/07/10 00:13:51;;;;;;;0.10;0.10;;;;;;;;;;5109022;28;20048;-58
2023/07/10 00:16:19;;;;;;;0.10;0.10;;;;;;;;;;5126736;28;20502;-59
2023/07/10 00:18:45;;;;;;;0.10;0.10;;;;;;;;;;5129765;28;20445;-58
2023/07/10 00:21:11;;;;;;;0.10;0.10;;;;;;;;;;5129130;28;20051;-58
2023/07/10 00:23:36;;;;;;;0.10;0.10;;;;;;;;;;5128609;28;20089;-58
2023/07/10 00:26:09;;;;;;;0.10;0.10;;;;;;;;;;5129543;28;20057;-58
2023/07/10 00:28:36;;;;;;;0.10;0.10;;;;;;;;;;5129097;28;20518;-58
2023/07/10 00:31:02;;;;;;;0.20;0.20;;;;;;;;;;5116863;27;20098;-58
2023/07/10 00:33:27;;;;;;;0.10;0.10;;;;;;;;;;5108820;28;20429;-58
2023/07/10 00:35:53;;;;;;;0.10;0.10;;;;;;;;;;5122419;28;20047;-58
2023/07/10 00:38:19;;;;;;;0.10;0.10;;;;;;;;;;5129248;28;20051;-59
2023/07/10 00:40:46;;;;;;;0.10;0.10;;;;;;;;;;5128790;28;20043;-59
2023/07/10 00:43:32;;;;;;;0.10;0.10;;;;;;;;;;5128276;28;20126;-59
2023/07/10 00:46:01;;;;;;;0.10;0.10;;;;;;;;;;5113091;28;20116;-59
2023/07/10 00:48:46;;;;;;;0.10;0.10;;;;;;;;;;5128008;27;20039;-58
2023/07/10 00:51:18;;;;;;;0.10;0.10;;;;;;;;;;5113090;28;20051;-58
2023/07/10 00:53:44;;;;;;;0.10;0.10;;;;;;;;;;5122209;27;20055;-58
2023/07/10 00:56:13;;;;;;;0.10;0.10;;;;;;;;;;5149085;27;20095;-58
2023/07/10 00:58:41;;;;;;;0.10;0.10;;;;;;;;;;5143757;27;20047;-58
2023/07/10 01:01:08;;;;;;;0.20;0.20;;;;;;;;;;5115530;27;20079;-58
2023/07/10 01:03:35;;;;;;;0.10;0.10;;;;;;;;;;5107956;28;20444;-59
2023/07/10 01:06:04;;;;;;;0.10;0.10;;;;;;;;;;5108445;28;20043;-58
2023/07/10 01:08:31;;;;;;;0.10;0.10;;;;;;;;;;5108540;28;20039;-58
2023/07/10 01:10:56;;;;;;;0.10;0.10;;;;;;;;;;5107138;28;20089;-58
2023/07/10 01:13:22;;;;;;;0.10;0.10;;;;;;;;;;5108020;28;20125;-59
2023/07/10 01:15:48;;;;;;;0.10;0.10;;;;;;;;;;5107780;28;20047;-58
2023/07/10 01:18:15;;;;;;;0.10;0.10;;;;;;;;;;5114811;28;20061;-58
2023/07/10 01:20:44;;;;;;;0.10;0.10;;;;;;;;;;5127859;28;20050;-59
2023/07/10 01:23:09;;;;;;;0.10;0.10;;;;;;;;;;5128121;28;20047;-58
2023/07/10 01:25:40;;;;;;;0.10;0.10;;;;;;;;;;5128306;28;20085;-58
2023/07/10 01:28:09;;;;;;;0.20;0.20;;;;;;;;;;5127575;28;20044;-58
2023/07/10 01:30:37;;;;;;;0.10;0.10;;;;;;;;;;5127634;28;20100;-58
2023/07/10 01:33:02;;;;;;;0.10;0.10;;;;;;;;;;5128031;28;20479;-58
2023/07/10 01:35:30;;;;;;;0.10;0.10;;;;;;;;;;5127728;28;20051;-58
2023/07/10 01:37:55;;;;;;;0.20;0.20;;;;;;;;;;5128274;28;20047;-58
2023/07/10 01:40:27;;;;;;;0.10;0.10;;;;;;;;;;5121833;28;20483;-58
2023/07/10 01:42:55;;;;;;;0.10;0.10;;;;;;;;;;5107955;28;20514;-58
2023/07/10 01:45:21;;;;;;;0.10;0.10;;;;;;;;;;5125815;28;20400;-58
2023/07/10 01:47:47;;;;;;;0.10;0.10;;;;;;;;;;5128813;27;20711;-58
2023/07/10 01:50:13;;;;;;;0.10;0.10;;;;;;;;;;5122787;27;20044;-58
2023/07/10 01:52:38;;;;;;;0.10;0.10;;;;;;;;;;5108919;28;20078;-58
2023/07/10 01:55:04;;;;;;;0.10;0.10;;;;;;;;;;5141836;27;20436;-58
2023/07/10 01:57:29;;;;;;;0.10;0.10;;;;;;;;;;5149248;27;20081;-58
2023/07/10 01:59:55;;;;;;;0.10;0.10;;;;;;;;;;5133395;27;20054;-58
2023/07/10 02:02:20;;;;;;;0.10;0.10;;;;;;;;;;5127279;28;20480;-58
2023/07/10 02:04:46;;;;;;;0.10;0.10;;;;;;;;;;5128260;28;20053;-58
2023/07/10 02:07:12;;;;;;;0.10;0.10;;;;;;;;;;5128559;28;20054;-58
2023/07/10 02:09:37;;;;;;;0.10;0.10;;;;;;;;;;5127799;28;20474;-58
2023/07/10 02:12:03;;;;;;;0.20;0.20;;;;;;;;;;5127974;28;20043;-58
2023/07/10 02:14:29;;;;;;;0.17;0.17;;;;;;;;;;5127691;28;20054;-58
2023/07/10 02:16:55;;;;;;;0.10;0.10;;;;;;;;;;5127497;28;20088;-58
2023/07/10 02:19:20;;;;;;;0.10;0.10;;;;;;;;;;5128011;28;20050;-38
2023/07/10 02:21:46;;;;;;;0.10;0.10;;;;;;;;;;5125286;28;20504;-48
2023/07/10 02:24:12;;;;;;;0.10;0.10;;;;;;;;;;5127450;27;20061;-49
2023/07/10 02:26:37;;;;;;;0.10;0.10;;;;;;;;;;5127826;28;20715;-49
2023/07/10 02:29:03;;;;;;;0.10;0.10;;;;;;;;;;5127634;28;20449;-50
2023/07/10 02:31:29;;;;;;;0.10;0.10;;;;;;;;;;5126810;28;20064;-47
2023/07/10 02:33:55;;;;;;;0.10;0.10;;;;;;;;;;5127430;27;20075;-49
2023/07/10 02:36:21;;;;;;;0.10;0.10;;;;;;;;;;5126791;27;20084;-49
2023/07/10 02:38:46;;;;;;;0.10;0.10;;;;;;;;;;5127182;28;20054;-49
2023/07/10 02:41:12;;;;;;;0.10;0.10;;;;;;;;;;5113306;28;20055;-49
2023/07/10 02:43:37;;;;;;;0.10;0.10;;;;;;;;;;5106587;28;20047;-48
2023/07/10 02:46:03;;;;;;;0.10;0.10;;;;;;;;;;5115955;28;20533;-49
2023/07/10 02:48:29;;;;;;;0.10;0.10;;;;;;;;;;5127297;28;20055;-49
2023/07/10 02:50:55;;;;;;;0.10;0.10;;;;;;;;;;5126769;28;20047;-49
2023/07/10 02:53:21;;;;;;;0.10;0.10;;;;;;;;;;5127098;27;20556;-48
2023/07/10 02:55:47;;;;;;;0.10;0.10;;;;;;;;;;5127488;28;20047;-47
2023/07/10 02:58:12;;;;;;;0.10;0.10;;;;;;;;;;5127917;28;20058;-48
2023/07/10 03:00:38;;;;;;;0.10;0.10;;;;;;;;;;5126967;27;20082;-50
2023/07/10 03:03:03;;;;;;;0.10;0.10;;;;;;;;;;5126999;28;20483;-49
2023/07/10 03:05:29;;;;;;;0.10;0.10;;;;;;;;;;5127590;28;20079;-48
2023/07/10 03:07:54;;;;;;;0.10;0.10;;;;;;;;;;5127166;28;20134;-48
2023/07/10 03:10:20;;;;;;;0.10;0.10;;;;;;;;;;5126670;27;20096;-49
2023/07/10 03:12:46;;;;;;;0.10;0.10;;;;;;;;;;5130737;28;20051;-50
2023/07/10 03:15:12;;;;;;;0.10;0.10;;;;;;;;;;5130655;28;20627;-48
2023/07/10 03:17:37;;;;;;;0.10;0.10;;;;;;;;;;5131268;28;20047;-50
2023/07/10 03:20:04;;;;;;;0.10;0.10;;;;;;;;;;5130676;28;20455;-49
2023/07/10 03:22:29;;;;;;;0.10;0.10;;;;;;;;;;5130201;28;20540;-50
2023/07/10 03:24:55;;;;;;;0.10;0.10;;;;;;;;;;5130572;28;20043;-37
2023/07/10 03:27:21;;;;;;;0.10;0.10;;;;;;;;;;5130806;28;20112;-50
2023/07/10 03:29:47;;;;;;;0.17;0.17;;;;;;;;;;5130781;28;20058;-49
2023/07/10 03:32:12;;;;;;;0.10;0.10;;;;;;;;;;5130045;28;20078;-49
2023/07/10 03:34:38;;;;;;;0.10;0.10;;;;;;;;;;5130986;28;20100;-49
2023/07/10 03:37:04;;;;;;;0.10;0.10;;;;;;;;;;5130850;28;20104;-49
2023/07/10 03:39:29;;;;;;;0.20;0.20;;;;;;;;;;5129722;27;20039;-48
2023/07/10 03:41:55;;;;;;;0.10;0.10;;;;;;;;;;5127870;27;20111;-50
2023/07/10 03:44:21;;;;;;;0.10;0.10;;;;;;;;;;5130293;28;20039;-49
2023/07/10 03:46:46;;;;;;;0.15;0.15;;;;;;;;;;5129690;28;20047;-48
2023/07/10 03:49:12;;;;;;;0.10;0.10;;;;;;;;;;5130009;28;20057;-49
2023/07/10 03:51:38;;;;;;;0.10;0.10;;;;;;;;;;5130634;27;20507;-49
2023/07/10 03:54:04;;;;;;;0.10;0.10;;;;;;;;;;5150577;27;20057;-48
2023/07/10 03:56:30;;;;;;;0.15;0.15;;;;;;;;;;5150974;27;20074;-49
2023/07/10 03:58:56;;;;;;;0.10;0.10;;;;;;;;;;5132541;27;20058;-50
2023/07/10 04:01:21;;;;;;;0.10;0.10;;;;;;;;;;5129654;27;20047;-50
2023/07/10 04:03:47;;;;;;;0.10;0.10;;;;;;;;;;5129498;28;20039;-48
2023/07/10 04:06:14;;;;;;;0.10;0.10;;;;;;;;;;5129914;28;20054;-49
2023/07/10 04:08:41;;;;;;;0.10;0.10;;;;;;;;;;5130156;28;20047;-50
2023/07/10 04:11:08;;;;;;;0.10;0.10;;;;;;;;;;5129188;28;20054;-49
2023/07/10 04:13:33;;;;;;;0.20;0.20;;;;;;;;;;5129590;28;20046;-49
2023/07/10 04:16:02;;;;;;;0.10;0.10;;;;;;;;;;5128942;28;20054;-50
2023/07/10 04:18:29;;;;;;;0.10;0.10;;;;;;;;;;5129908;28;20047;-49
2023/07/10 04:20:54;;;;;;;0.20;0.20;;;;;;;;;;5129686;28;20058;-49
2023/07/10 04:23:20;;;;;;;0.10;0.10;;;;;;;;;;5129116;27;20055;-48
2023/07/10 04:25:45;;;;;;;0.10;0.10;;;;;;;;;;5129329;28;20096;-49
2023/07/10 04:28:11;;;;;;;0.10;0.10;;;;;;;;;;5130062;28;20460;-49
2023/07/10 04:30:37;;;;;;;0.10;0.10;;;;;;;;;;5120630;27;20055;-49
2023/07/10 04:33:02;;;;;;;0.10;0.10;;;;;;;;;;5110664;28;20100;-49
2023/07/10 04:35:28;;;;;;;0.10;0.10;;;;;;;;;;5127644;28;20043;-50
2023/07/10 04:37:53;;;;;;;0.10;0.10;;;;;;;;;;5129656;28;20123;-49
2023/07/10 04:40:19;;;;;;;0.10;0.10;;;;;;;;;;5129361;28;20104;-48
2023/07/10 04:42:44;;;;;;;0.10;0.10;;;;;;;;;;5128166;28;20063;-49
2023/07/10 04:45:10;;;;;;;0.20;0.20;;;;;;;;;;5128097;28;20047;-49
2023/07/10 04:47:35;;;;;;;0.10;0.10;;;;;;;;;;5129705;28;20610;-49
2023/07/10 04:50:01;;;;;;;0.10;0.10;;;;;;;;;;5128274;28;20050;-50
2023/07/10 04:52:27;;;;;;;0.10;0.10;;;;;;;;;;5136936;27;20196;-50
2023/07/10 04:54:52;;;;;;;0.10;0.10;;;;;;;;;;5149641;27;20050;-49
2023/07/10 04:57:18;;;;;;;0.10;0.10;;;;;;;;;;5149645;27;20468;-49
2023/07/10 04:59:44;;;;;;;0.10;0.10;;;;;;;;;;5147447;27;20065;-49
2023/07/10 05:02:10;;;;;;;0.10;0.10;;;;;;;;;;5108146;28;20465;-46
2023/07/10 05:04:36;;;;;;;0.20;0.20;;;;;;;;;;5108200;28;20498;-50
2023/07/10 05:07:03;;;;;;;0.10;0.10;;;;;;;;;;5123861;28;20051;-49
2023/07/10 05:09:29;;;;;;;0.10;0.10;;;;;;;;;;5128237;28;20051;-49
2023/07/10 05:11:55;;;;;;;0.10;0.10;;;;;;;;;;5128265;28;20055;-50
2023/07/10 05:14:21;;;;;;;0.10;0.10;;;;;;;;;;5128491;28;20145;-50
2023/07/10 05:16:46;;;;;;;0.17;0.17;;;;;;;;;;5128285;28;20244;-46
2023/07/10 05:19:12;;;;;;;0.10;0.10;;;;;;;;;;5128243;28;20043;-49
2023/07/10 05:21:37;;;;;;;0.20;0.20;;;;;;;;;;5128242;28;20058;-47
2023/07/10 05:24:03;;;;;;;0.10;0.10;;;;;;;;;;5128198;28;20050;-49
2023/07/10 05:26:29;;;;;;;0.10;0.10;;;;;;;;;;5128347;28;20185;-47
2023/07/10 05:28:54;;;;;;;0.10;0.10;;;;;;;;;;5128265;28;20057;-49
2023/07/10 05:31:20;;;;;;;0.10;0.10;;;;;;;;;;5112657;28;20488;-50
2023/07/10 05:33:46;;;;;;;0.10;0.10;;;;;;;;;;5107483;28;20058;-49
2023/07/10 05:36:13;;;;;;;0.10;0.10;;;;;;;;;;5120754;28;20043;-49
2023/07/10 05:38:39;;;;;;;0.10;0.10;;;;;;;;;;5128214;28;20534;-50
2023/07/10 05:41:05;;;;;;;0.10;0.10;;;;;;;;;;5127984;28;20114;-50
2023/07/10 05:43:32;;;;;;;0.10;0.10;;;;;;;;;;5127412;28;20478;-50
2023/07/10 05:45:58;;;;;;;0.10;0.10;;;;;;;;;;5127572;28;20055;-49
2023/07/10 05:48:23;;;;;;;0.10;0.10;;;;;;;;;;5128385;27;20077;-49
2023/07/10 05:50:50;;;;;;;0.10;0.10;;;;;;;;;;5125413;27;20592;-48
2023/07/10 05:53:16;;;;;;;0.10;0.10;;;;;;;;;;5127330;27;20084;-50
2023/07/10 05:55:43;;;;;;;0.10;0.10;;;;;;;;;;5128105;28;20075;-48
2023/07/10 05:58:09;;;;;;;0.10;0.10;;;;;;;;;;5128161;28;20058;-50
2023/07/10 06:00:34;;;;;;;0.20;0.20;;;;;;;;;;5127820;27;20051;-49
2023/07/10 06:03:00;;;;;;;0.10;0.10;;;;;;;;;;5127638;28;20047;-49
2023/07/10 06:05:25;;;;;;;0.10;0.10;;;;;;;;;;5127709;28;20616;-50
2023/07/10 06:07:51;;;;;;;0.10;0.10;;;;;;;;;;5127484;28;20456;-50
2023/07/10 06:10:16;;;;;;;0.10;0.10;;;;;;;;;;5126849;28;20660;-50
2023/07/10 06:12:42;;;;;;;0.10;0.10;;;;;;;;;;5127412;28;20474;-49
2023/07/10 06:15:08;;;;;;;0.10;0.10;;;;;;;;;;5127486;28;20066;-49
2023/07/10 06:17:34;;;;;;;0.10;0.10;;;;;;;;;;5127817;28;20047;-49
2023/07/10 06:19:59;;;;;;;0.10;0.10;;;;;;;;;;5127333;28;20097;-46
2023/07/10 06:22:25;;;;;;;0.10;0.10;;;;;;;;;;5127674;28;20047;-48
2023/07/10 06:24:51;;;;;;;0.10;0.10;;;;;;;;;;5127964;28;20178;-49
2023/07/10 06:27:16;;;;;;;0.10;0.10;;;;;;;;;;5128184;28;20047;-49
2023/07/10 06:29:42;;;;;;;0.10;0.10;;;;;;;;;;5128174;28;20502;-50
2023/07/10 06:32:08;;;;;;;0.10;0.10;;;;;;;;;;5127834;28;20050;-50
2023/07/10 06:34:33;;;;;;;0.10;0.10;;;;;;;;;;5128677;28;20058;-50
2023/07/10 06:36:59;;;;;;;0.10;0.10;;;;;;;;;;5127845;28;20285;-50
2023/07/10 06:39:26;;;;;;;0.10;0.10;;;;;;;;;;5127749;28;20054;-49
2023/07/10 06:41:51;;;;;;;0.20;0.20;;;;;;;;;;5127791;28;20514;-48
2023/07/10 06:44:17;;;;;;;0.10;0.10;;;;;;;;;;5127651;28;20074;-48
2023/07/10 06:46:42;;;;;;;0.10;0.10;;;;;;;;;;5129018;27;20120;-49
2023/07/10 06:49:08;;;;;;;0.10;0.10;;;;;;;;;;5131339;28;20119;-50
2023/07/10 06:51:35;;;;;;;0.10;0.10;;;;;;;;;;5129616;27;20047;-49
2023/07/10 06:54:02;;;;;;;0.10;0.10;;;;;;;;;;5130975;28;20078;-50
2023/07/10 06:56:29;;;;;;;0.17;0.17;;;;;;;;;;5130972;27;20071;-50
2023/07/10 06:58:55;;;;;;;0.10;0.10;;;;;;;;;;5131524;27;20055;-50
2023/07/10 07:01:20;;;;;;;0.10;0.10;;;;;;;;;;5116246;28;20040;-50
2023/07/10 07:03:46;;;;;;;0.10;0.10;;;;;;;;;;5110483;28;20052;-49
2023/07/10 07:06:11;;;;;;;0.10;0.10;;;;;;;;;;5110582;28;20074;-48
2023/07/10 07:08:37;;;;;;;0.10;0.10;;;;;;;;;;5110913;28;20039;-48
2023/07/10 07:11:02;;;;;;;0.10;0.10;;;;;;;;;;5127002;28;20444;-49
2023/07/10 07:13:28;;;;;;;0.10;0.10;;;;;;;;;;5130610;28;20043;-50
2023/07/10 07:15:54;;;;;;;0.10;0.10;;;;;;;;;;5130634;28;20050;-48
2023/07/10 07:18:21;;;;;;;0.10;0.10;;;;;;;;;;5131107;28;20050;-50
2023/07/10 07:20:47;;;;;;;0.10;0.10;;;;;;;;;;5130519;28;20074;-50
2023/07/10 07:23:12;;;;;;;0.10;0.10;;;;;;;;;;5130658;28;20047;-49
2023/07/10 07:25:39;;;;;;;0.10;0.10;;;;;;;;;;5130367;28;20047;-49
2023/07/10 07:28:04;;;;;;;0.10;0.10;;;;;;;;;;5113978;28;20043;-49
2023/07/10 07:30:30;;;;;;;0.10;0.10;;;;;;;;;;5129270;28;20051;-49
2023/07/10 07:32:56;;;;;;;0.10;0.10;;;;;;;;;;5130011;28;20129;-48
2023/07/10 07:35:22;;;;;;;0.10;0.10;;;;;;;;;;5130526;28;20395;-49
2023/07/10 07:37:47;;;;;;;0.10;0.10;;;;;;;;;;5130819;28;20051;-49
2023/07/10 07:40:16;;;;;;;0.10;0.10;;;;;;;;;;5129557;28;20050;-49
2023/07/10 07:42:43;;;;;;;0.10;0.10;;;;;;;;;;5130404;28;20089;-50
2023/07/10 07:45:09;;;;;;;0.10;0.10;;;;;;;;;;5129916;28;20050;-50
2023/07/10 07:47:34;;;;;;;0.10;0.10;;;;;;;;;;5130111;28;20051;-49
2023/07/10 07:50:00;;;;;;;0.10;0.10;;;;;;;;;;5120788;27;20043;-49
2023/07/10 07:52:26;;;;;;;0.10;0.10;;;;;;;;;;5129779;28;20051;-49
2023/07/10 07:54:51;;;;;;;0.10;0.10;;;;;;;;;;5129548;28;20054;-50
2023/07/10 07:57:17;;;;;;;0.10;0.10;;;;;;;;;;5129420;27;20066;-50
2023/07/10 07:59:42;;;;;;;0.10;0.10;;;;;;;;;;5128816;28;20297;-47
2023/07/10 08:02:09;;;;;;;0.10;0.10;;;;;;;;;;5108608;28;20423;-50
2023/07/10 08:04:34;;;;;;;0.10;0.10;;;;;;;;;;5109109;28;20044;-49
2023/07/10 08:07:00;;;;;;;0.10;0.10;;;;;;;;;;5109451;28;20101;-50
2023/07/10 08:09:25;;;;;;;0.10;0.10;;;;;;;;;;5120800;28;20099;-49
2023/07/10 08:11:51;;;;;;;0.10;0.10;;;;;;;;;;5129420;28;20047;-50
2023/07/10 08:14:16;;;;;;;0.10;0.10;;;;;;;;;;5129715;28;20423;-48
2023/07/10 08:16:42;;;;;;;0.10;0.10;;;;;;;;;;5128754;28;20046;-49
2023/07/10 08:19:08;;;;;;;0.10;0.10;;;;;;;;;;5129911;28;20483;-50
2023/07/10 08:21:33;;;;;;;0.10;0.10;;;;;;;;;;5112497;28;20105;-50
2023/07/10 08:23:59;;;;;;;0.10;0.10;;;;;;;;;;5108845;28;20047;-48
2023/07/10 08:26:24;;;;;;;0.10;0.10;;;;;;;;;;5109096;28;20367;-49
2023/07/10 08:28:50;;;;;;;0.10;0.10;;;;;;;;;;5121628;28;20136;-49
2023/07/10 08:31:16;;;;;;;0.10;0.10;;;;;;;;;;5127463;28;20051;-49
2023/07/10 08:33:42;;;;;;;0.10;0.10;;;;;;;;;;5129401;27;20043;-46
2023/07/10 08:36:07;;;;;;;0.10;0.10;;;;;;;;;;5129600;28;20065;-50
2023/07/10 08:38:34;;;;;;;0.10;0.10;;;;;;;;;;5129946;27;20434;-50
2023/07/10 08:41:04;;;;;;;0.10;0.10;;;;;;;;;;5125676;27;20050;-49
2023/07/10 08:43:31;;;;;;;0.10;0.10;;;;;;;;;;5129556;27;20433;-49
2023/07/10 08:46:01;;;;;;;0.10;0.10;;;;;;;;;;5129342;27;20050;-48
2023/07/10 08:48:31;;;;;;;0.10;0.10;;;;;;;;;;5128630;28;20047;-49
2023/07/10 08:50:59;;;;;;;0.10;0.10;;;;;;;;;;5117415;27;20051;-50
2023/07/10 08:53:27;;;;;;;0.10;0.10;;;;;;;;;;5108646;28;20518;-49
2023/07/10 08:55:57;;;;;;;0.10;0.10;;;;;;;;;;5110567;28;20471;-49
2023/07/10 08:58:25;;;;;;;0.10;0.10;;;;;;;;;;5128461;28;20491;-50
2023/07/10 09:00:53;;;;;;;0.10;0.10;;;;;;;;;;5129014;27;20047;-49
2023/07/10 09:03:28;;;;;;;0.10;0.10;;;;;;;;;;5129150;28;20047;-50
2023/07/10 09:05:54;;;;;;;0.10;0.10;;;;;;;;;;5129508;28;20509;-49
2023/07/10 09:08:21;;;;;;;0.10;0.10;;;;;;;;;;5128563;27;20553;-50
2023/07/10 09:10:48;;;;;;;0.10;0.10;;;;;;;;;;5128120;28;20610;-52
2023/07/10 09:13:16;;;;;;;0.10;0.10;;;;;;;;;;5128761;28;20075;-52
2023/07/10 09:15:41;;;;;;;;;;;;;;;;;;5128472;28;20430;-52
2023/07/10 09:20:42;;;;;;;0.10;0.10;;;;;;;;;;5187419;27;20513;-49
2023/07/10 09:23:16;;;;;;;0.10;0.10;;;;;;;;;;5166011;27;20042;-49
2023/07/10 09:25:41;;;;;;;0.10;0.10;;;;;;;;;;5165937;27;20061;-49
2023/07/10 09:28:07;;;;;;;0.10;0.10;;;;;;;;;;5166693;27;20047;-47
2023/07/10 09:30:52;;;;;;;0.10;0.10;;;;;;;;;;5165421;27;20050;-50
2023/07/10 09:33:20;;;;;;;0.10;0.10;;;;;;;;;;5157777;27;20483;-49
2023/07/10 09:35:46;;;;;;;0.10;0.10;;;;;;;;;;5165989;27;20086;-50
2023/07/10 09:38:13;;;;;;;0.10;0.10;;;;;;;;;;5166408;27;20050;-49
2023/07/10 09:40:41;;;;;;;0.10;0.10;;;;;;;;;;5165069;27;20463;-50
2023/07/10 09:43:14;;;;;;;0.10;0.10;;;;;;;;;;5165058;27;20046;-49
2023/07/10 09:45:42;;;;;;;0.15;0.15;;;;;;;;;;5165327;27;20057;-47
2023/07/10 09:48:11;;;;;;;0.20;0.20;;;;;;;;;;5165874;27;20447;-49
2023/07/10 09:50:37;;;;;;;0.10;0.10;;;;;;;;;;5175018;27;20402;-49
2023/07/10 09:53:03;;;;;;;0.10;0.10;;;;;;;;;;5165201;27;20143;-46
2023/07/10 09:55:28;;;;;;;0.10;0.10;;;;;;;;;;5165475;27;20042;-50
2023/07/10 09:57:57;;;;;;;0.10;0.10;;;;;;;;;;5165477;27;20103;-48
2023/07/10 10:00:22;;;;;;;;;;;;;;;;;;5163560;27;20133;-49
2023/07/10 10:02:53;;;;;;;0.10;0.10;;;;;;;;;;5145019;27;19924;-49
2023/07/10 10:05:19;;;;;;;0.10;0.10;;;;;;;;;;5144776;27;20174;-49
2023/07/10 10:07:46;;;;;;;0.10;0.10;;;;;;;;;;5144993;27;20090;-50
2023/07/10 10:10:19;;;;;;;0.10;0.10;;;;;;;;;;5144321;27;20515;-49
2023/07/10 10:12:47;;;;;;;0.10;0.10;;;;;;;;;;5143952;27;20078;-48
2023/07/10 10:15:20;;;;;;;0.10;0.10;;;;;;;;;;5144056;27;20051;-50
2023/07/10 10:17:47;;;;;;;0.10;0.10;;;;;;;;;;5144689;27;20391;-49
2023/07/10 10:20:17;;;;;;;0.10;0.10;;;;;;;;;;5144608;27;20506;-48
2023/07/10 10:22:42;;;;;;;0.10;0.10;;;;;;;;;;5144356;27;20046;-49
2023/07/10 10:25:13;;;;;;;0.10;0.10;;;;;;;;;;5144254;27;20096;-49
2023/07/10 10:27:42;;;;;;;0.10;0.10;;;;;;;;;;5144744;27;20066;-49
2023/07/10 10:30:15;;;;;;;0.15;0.15;;;;;;;;;;5141920;27;20088;-49
2023/07/10 10:32:46;;;;;;;0.10;0.10;;;;;;;;;;5129801;28;20326;-49
2023/07/10 10:35:32;;;;;;;0.10;0.10;;;;;;;;;;5130114;27;20104;-46
2023/07/10 10:38:04;;;;;;;0.10;0.10;;;;;;;;;;5129684;28;20403;-48
2023/07/10 10:40:36;;;;;;;0.10;0.10;;;;;;;;;;5130212;27;20083;-49
2023/07/10 10:43:19;;;;;;;0.10;0.10;;;;;;;;;;5130105;28;20499;-49
2023/07/10 10:45:51;;;;;;;0.10;0.10;;;;;;;;;;5129027;28;20071;-49
2023/07/10 10:48:29;;;;;;;0.10;0.10;;;;;;;;;;5123911;27;20040;-50
2023/07/10 10:51:14;;;;;;;0.10;0.10;;;;;;;;;;5120931;28;20085;-49
2023/07/10 10:56:24;;;;;;;0.10;0.10;;;;;;;;;;5187712;27;20137;-49
2023/07/10 10:58:53;;;;;;;0.10;0.10;;;;;;;;;;5166670;27;20051;-48
2023/07/10 11:01:27;;;;;;;0.10;0.10;;;;;;;;;;5153979;27;20518;-49
2023/07/10 11:03:58;;;;;;;0.10;0.10;;;;;;;;;;5145605;27;20127;-49
2023/07/10 11:06:44;;;;;;;0.10;0.10;;;;;;;;;;5145676;27;20303;-49
2023/07/10 11:09:13;;;;;;;0.10;0.10;;;;;;;;;;5145062;27;20051;-49
2023/07/10 11:11:39;;;;;;;0.10;0.10;;;;;;;;;;5127452;27;20142;-49
2023/07/10 11:14:06;;;;;;;0.10;0.10;;;;;;;;;;5124446;28;20055;-48
2023/07/10 11:16:33;;;;;;;0.20;0.20;;;;;;;;;;5124878;28;20051;-49
2023/07/10 11:19:00;;;;;;;0.20;0.20;;;;;;;;;;5124568;28;20137;-48
2023/07/10 11:21:25;;;;;;;0.10;0.10;;;;;;;;;;5124406;27;20595;-49
2023/07/10 11:23:51;;;;;;;0.10;0.10;;;;;;;;;;5124421;28;20043;-48
2023/07/10 11:26:20;;;;;;;0.20;0.20;;;;;;;;;;5124453;28;20134;-45
2023/07/10 11:28:54;;;;;;;0.10;0.10;;;;;;;;;;5124871;28;20067;-47
2023/07/10 11:34:28;;;;;;;0.10;0.10;;;;;;;;;;5187452;27;20145;-50
2023/07/10 11:36:55;;;;;;;0.10;0.10;;;;;;;;;;5162500;27;20089;-50
2023/07/10 11:39:37;;;;;;;0.20;0.20;;;;;;;;;;5166399;27;20078;-49
2023/07/10 11:44:40;;;;;;;0.10;0.10;;;;;;;;;;5187494;27;20153;-47
2023/07/10 11:47:08;;;;;;;0.10;0.10;;;;;;;;;;5159868;27;20336;-49
2023/07/10 11:52:23;;;;;;;0.10;0.10;;;;;;;;;;5187402;27;20141;-49
2023/07/10 11:57:25;;;;;;;0.10;0.10;;;;;;;;;;5209181;27;20198;-49
2023/07/10 11:59:52;;;;;;;0.20;0.20;;;;;;;;;;5185506;27;20049;-50
2023/07/10 12:02:27;;;;;;;0.10;0.10;;;;;;;;;;5156297;27;20058;-49
2023/07/10 12:04:52;;;;;;;0.10;0.10;;;;;;;;;;5166680;27;20054;-47
2023/07/10 12:07:18;;;;;;;0.10;0.10;;;;;;;;;;5167152;27;20161;-50
2023/07/10 12:09:48;;;;;;;0.10;0.10;;;;;;;;;;5164972;27;20043;-49
2023/07/10 12:12:14;;;;;;;0.10;0.10;;;;;;;;;;5145504;27;20051;-49
2023/07/10 12:14:39;;;;;;;0.10;0.10;;;;;;;;;;5145716;27;20043;-49
2023/07/10 12:17:11;;;;;;;0.10;0.10;;;;;;;;;;5145422;27;20055;-46
2023/07/10 12:19:59;;;;;;;0.10;0.10;;;;;;;;;;5130267;27;20061;-50
2023/07/10 12:22:28;;;;;;;0.10;0.10;;;;;;;;;;5145387;27;20430;-48
2023/07/10 12:24:55;;;;;;;0.10;0.10;;;;;;;;;;5145080;27;20078;-49
2023/07/10 12:27:21;;;;;;;0.10;0.10;;;;;;;;;;5145631;27;20133;-49
2023/07/10 12:29:51;;;;;;;0.10;0.10;;;;;;;;;;5145501;27;20039;-50
2023/07/10 12:32:16;;;;;;;0.10;0.10;;;;;;;;;;5145626;27;20074;-49
2023/07/10 12:34:42;;;;;;;0.10;0.10;;;;;;;;;;5145897;27;20444;-50
2023/07/10 12:37:09;;;;;;;0.10;0.10;;;;;;;;;;5160191;27;20054;-49
2023/07/10 12:39:35;;;;;;;0.10;0.10;;;;;;;;;;5144167;27;20050;-48
2023/07/10 12:42:00;;;;;;;0.10;0.10;;;;;;;;;;5124299;27;20043;-49
2023/07/10 12:44:27;;;;;;;0.10;0.10;;;;;;;;;;5124385;28;20050;-50
2023/07/10 12:46:55;;;;;;;0.10;0.10;;;;;;;;;;5127393;27;20062;-50
2023/07/10 12:49:23;;;;;;;0.10;0.10;;;;;;;;;;5148663;27;20043;-48
2023/07/10 12:51:49;;;;;;;0.10;0.10;;;;;;;;;;5125361;27;20305;-50
2023/07/10 12:54:17;;;;;;;;;;;;;;;;;;5124792;28;20043;-48
2023/07/10 12:56:43;;;;;;;0.10;0.10;;;;;;;;;;5131938;27;20006;-50
2023/07/10 12:59:16;;;;;;;0.10;0.10;;;;;;;;;;5144963;27;20062;-49
2023/07/10 13:01:47;;;;;;;0.10;0.10;;;;;;;;;;5126805;27;20054;-50
2023/07/10 13:04:21;;;;;;;0.10;0.10;;;;;;;;;;5135930;27;20086;-49
2023/07/10 13:06:57;;;;;;;0.10;0.10;;;;;;;;;;5142728;27;20103;-50
2023/07/10 13:09:31;;;;;;;0.20;0.20;;;;;;;;;;5130839;28;20050;-49
2023/07/10 13:11:57;;;;;;;0.10;0.10;;;;;;;;;;5110118;28;20096;-49
2023/07/10 13:14:26;;;;;;;0.20;0.20;;;;;;;;;;5109949;28;20052;-50
2023/07/10 13:16:52;;;;;;;0.10;0.10;;;;;;;;;;5109803;28;20055;-49
2023/07/10 13:19:18;;;;;;;0.10;0.10;;;;;;;;;;5110521;28;20059;-49
2023/07/10 13:21:43;;;;;;;0.10;0.10;;;;;;;;;;5109905;28;20051;-50
2023/07/10 13:24:09;;;;;;;0.10;0.10;;;;;;;;;;5110068;28;20043;-49
2023/07/10 13:26:34;;;;;;;0.10;0.10;;;;;;;;;;5109986;28;20078;-48
2023/07/10 13:29:00;;;;;;;0.10;0.10;;;;;;;;;;5109770;28;20093;-48
2023/07/10 13:31:32;;;;;;;0.10;0.10;;;;;;;;;;5108946;28;20039;-50
2023/07/10 13:33:57;;;;;;;0.10;0.10;;;;;;;;;;5109530;28;20067;-47
2023/07/10 13:36:25;;;;;;;0.10;0.10;;;;;;;;;;5110754;27;20056;-49
2023/07/10 13:38:51;;;;;;;0.10;0.10;;;;;;;;;;5145632;27;20058;-49
2023/07/10 13:41:18;;;;;;;0.10;0.10;;;;;;;;;;5133549;27;20502;-49
2023/07/10 13:43:43;;;;;;;0.10;0.10;;;;;;;;;;5130218;28;20101;-49
2023/07/10 13:46:29;;;;;;;0.10;0.10;;;;;;;;;;5123799;28;20118;-50
2023/07/10 13:48:56;;;;;;;0.10;0.10;;;;;;;;;;5115059;28;20130;-49
2023/07/10 13:51:22;;;;;;;0.10;0.10;;;;;;;;;;5143332;27;20039;-50
2023/07/10 13:53:48;;;;;;;0.10;0.10;;;;;;;;;;5150630;27;20050;-49
2023/07/10 13:56:16;;;;;;;0.10;0.10;;;;;;;;;;5150703;27;20091;-50
2023/07/10 13:58:42;;;;;;;;;;;;;;;;;;5148649;27;20051;-48
2023/07/10 14:01:09;;;;;;;0.10;0.10;;;;;;;;;;5116843;28;19927;-50
2023/07/10 14:03:35;;;;;;;0.10;0.10;;;;;;;;;;5108643;28;20051;-49
2023/07/10 14:06:01;;;;;;;0.10;0.10;;;;;;;;;;5122629;27;20172;-50
2023/07/10 14:08:27;;;;;;;0.10;0.10;;;;;;;;;;5129944;28;20539;-50
2023/07/10 14:10:54;;;;;;;0.10;0.10;;;;;;;;;;5118337;28;20048;-50
2023/07/10 14:13:20;;;;;;;0.10;0.10;;;;;;;;;;5108913;28;20211;-50
2023/07/10 14:15:50;;;;;;;0.10;0.10;;;;;;;;;;5108759;28;20152;-49
2023/07/10 14:18:20;;;;;;;0.10;0.10;;;;;;;;;;5108989;28;20066;-49
2023/07/10 14:20:46;;;;;;;0.10;0.10;;;;;;;;;;5108489;28;20122;-50
2023/07/10 14:23:12;;;;;;;0.10;0.10;;;;;;;;;;5108904;28;20544;-50
2023/07/10 14:25:38;;;;;;;0.10;0.10;;;;;;;;;;5109164;28;20056;-50
2023/07/10 14:28:04;;;;;;;0.10;0.10;;;;;;;;;;5108632;28;20085;-49
2023/07/10 14:30:30;;;;;;;0.10;0.10;;;;;;;;;;5108922;28;20108;-49
2023/07/10 14:32:55;;;;;;;0.10;0.10;;;;;;;;;;5108899;28;20051;-48
2023/07/10 14:35:21;;;;;;;0.10;0.10;;;;;;;;;;5108263;28;20100;-49
2023/07/10 14:37:48;;;;;;;0.10;0.10;;;;;;;;;;5108979;28;20360;-49
2023/07/10 14:40:15;;;;;;;0.10;0.10;;;;;;;;;;5132850;27;20380;-50
2023/07/10 14:42:40;;;;;;;0.10;0.10;;;;;;;;;;5140394;27;20410;-50
2023/07/10 14:45:11;;;;;;;0.10;0.10;;;;;;;;;;5149352;27;20479;-50
2023/07/10 14:47:37;;;;;;;0.10;0.10;;;;;;;;;;5122919;27;20058;-49
2023/07/10 14:50:04;;;;;;;0.10;0.10;;;;;;;;;;5125076;28;20423;-49
2023/07/10 14:52:31;;;;;;;0.10;0.10;;;;;;;;;;5123271;27;20051;-50
2023/07/10 14:54:57;;;;;;;0.10;0.10;;;;;;;;;;5129144;28;20058;-49
2023/07/10 14:57:28;;;;;;;0.10;0.10;;;;;;;;;;5129076;28;20074;-50
2023/07/10 14:59:54;;;;;;;0.10;0.10;;;;;;;;;;5127782;27;20088;-49